Time;durP1;ratioP1;P1;durP2;ratioP2;P2;SDS_P1;SDS_P2;PMS_P1;PMS_P2;Temp;Humidity;BMP_temperature;BMP_pressure;BME280_temperature;BME280_humidity;BME280_pressure;Samples;Min_cycle;Max_cycle;Signal;HPM_P1;HPM_P2
2021/12/26 00:00:16;;;;;;;;;;;-5.80;94.30;;;;;;5034878;28;20302;-42
2021/12/26 00:02:42;;;;;;;;;;;-5.80;94.70;;;;;;5034314;28;19932;-45
2021/12/26 00:05:09;;;;;;;;;;;-5.80;94.30;;;;;;5032405;28;19926;-45
2021/12/26 00:07:36;;;;;;;;;;;-5.80;94.60;;;;;;5032022;28;20400;-41
2021/12/26 00:10:03;;;;;;;;;;;-5.80;94.40;;;;;;5033322;28;19956;-43
2021/12/26 00:12:31;;;;;;;;;;;-5.80;94.40;;;;;;5032172;28;20015;-42
2021/12/26 00:14:58;;;;;;;;;;;-5.90;94.30;;;;;;5033842;28;19929;-43
2021/12/26 00:17:25;;;;;;;;;;;-5.90;93.80;;;;;;5031403;28;19979;-43
2021/12/26 00:19:52;;;;;;;;;;;-5.80;93.80;;;;;;5035370;28;19935;-42
2021/12/26 00:22:18;;;;;;;;;;;-5.90;93.80;;;;;;5035010;28;19939;-44
2021/12/26 00:24:46;;;;;;;;;;;-5.90;93.60;;;;;;5031386;28;20374;-44
2021/12/26 00:27:12;;;;;;;;;;;-5.90;93.30;;;;;;5027549;28;20036;-44
2021/12/26 00:29:40;;;;;;;;;;;-5.90;92.90;;;;;;5033874;28;20344;-44
2021/12/26 00:32:08;;;;;;;;;;;-5.90;92.90;;;;;;5033621;28;19933;-44
2021/12/26 00:34:35;;;;;;;;;;;-5.90;92.80;;;;;;5029246;28;20332;-43
2021/12/26 00:37:02;;;;;;;;;;;-5.90;92.60;;;;;;5031523;28;19925;-44
2021/12/26 00:39:28;;;;;;;;;;;-5.90;92.90;;;;;;5032523;28;19925;-43
2021/12/26 00:41:55;;;;;;;;;;;-5.80;92.70;;;;;;5033784;28;20350;-43
2021/12/26 00:44:22;;;;;;;;;;;-5.90;92.40;;;;;;5033030;28;20016;-42
2021/12/26 00:46:53;;;;;;;;;;;-5.80;92.60;;;;;;5036589;28;19928;-43
2021/12/26 00:49:20;;;;;;;;;;;-5.80;92.40;;;;;;5033555;28;20028;-42
2021/12/26 00:51:47;;;;;;;;;;;-5.80;92.00;;;;;;5032633;28;19925;-42
2021/12/26 00:54:14;;;;;;;;;;;-5.80;91.90;;;;;;5035884;28;19933;-42
2021/12/26 00:56:41;;;;;;;;;;;-5.80;91.60;;;;;;5038112;28;19925;-43
2021/12/26 00:59:07;;;;;;;;;;;-5.80;91.50;;;;;;5027621;28;19975;-43
2021/12/26 01:01:34;;;;;;;;;;;-5.80;91.50;;;;;;5033237;28;19929;-43
2021/12/26 01:04:02;;;;;;;;;;;-5.80;91.30;;;;;;5039704;28;20044;-43
2021/12/26 01:06:29;;;;;;;;;;;-5.80;91.10;;;;;;5036874;28;20008;-43
2021/12/26 01:08:56;;;;;;;;;;;-5.80;91.20;;;;;;5032472;28;19971;-42
2021/12/26 01:11:33;;;;;;;;;;;-5.70;91.30;;;;;;5032430;28;20439;-42
2021/12/26 01:14:00;;;;;;;;;;;-5.80;91.50;;;;;;5032619;28;20044;-43
2021/12/26 01:16:28;;;;;;;;;;;-5.90;91.30;;;;;;5035643;28;19929;-43
2021/12/26 01:19:00;;;;;;;;;;;-5.90;91.70;;;;;;5034069;28;19929;-42
2021/12/26 01:21:28;;;;;;;;;;;-5.90;91.40;;;;;;5035552;28;20336;-42
2021/12/26 01:23:56;;;;;;;;;;;-5.90;91.70;;;;;;5032293;28;20032;-42
2021/12/26 01:26:23;;;;;;;;;;;-5.90;91.80;;;;;;5038052;28;19937;-42
2021/12/26 01:28:49;;;;;;;;;;;-5.90;91.60;;;;;;5032423;28;20420;-43
2021/12/26 01:31:19;;;;;;;;;;;-6.00;91.50;;;;;;5033326;28;19926;-43
2021/12/26 01:33:45;;;;;;;;;;;-5.90;91.50;;;;;;5027024;28;20297;-42
2021/12/26 01:36:12;;;;;;;;;;;-5.90;91.70;;;;;;5033601;28;19932;-43
2021/12/26 01:38:40;;;;;;;;;;;-6.00;91.60;;;;;;5030063;28;19925;-43
2021/12/26 01:41:10;;;;;;;;;;;-6.00;91.70;;;;;;5032513;28;19925;-44
2021/12/26 01:43:37;;;;;;;;;;;-6.00;91.40;;;;;;5036557;28;20381;-42
2021/12/26 01:46:03;;;;;;;;;;;-6.00;91.70;;;;;;5030840;28;19931;-43
2021/12/26 01:48:30;;;;;;;;;;;-6.00;91.60;;;;;;5032840;28;19925;-44
2021/12/26 01:50:57;;;;;;;;;;;-6.00;91.80;;;;;;5032758;28;20008;-45
2021/12/26 01:53:24;;;;;;;;;;;-6.00;91.70;;;;;;5038302;28;20292;-42
2021/12/26 01:55:53;;;;;;;;;;;-6.00;91.60;;;;;;5032498;28;20013;-42
2021/12/26 01:58:20;;;;;;;;;;;-6.00;91.20;;;;;;5031089;28;19971;-42
2021/12/26 02:00:49;;;;;;;;;;;-6.00;91.20;;;;;;5032381;28;20344;-43
2021/12/26 02:03:16;;;;;;;;;;;-6.00;91.10;;;;;;5034061;28;19935;-43
2021/12/26 02:05:43;;;;;;;;;;;-6.10;91.40;;;;;;5033626;28;19955;-43
2021/12/26 02:08:10;;;;;;;;;;;-6.00;91.30;;;;;;5032165;28;19979;-43
2021/12/26 02:10:37;;;;;;;;;;;-6.00;91.10;;;;;;5032048;28;19925;-42
2021/12/26 02:13:05;;;;;;;;;;;-6.00;91.00;;;;;;5032359;28;19925;-43
2021/12/26 02:15:32;;;;;;;;;;;-6.00;91.10;;;;;;5031218;28;20015;-43
2021/12/26 02:17:58;;;;;;;;;;;-6.10;91.20;;;;;;5031017;28;20302;-43
2021/12/26 02:20:34;;;;;;;;;;;-6.10;91.30;;;;;;5031876;28;19925;-43
2021/12/26 02:23:07;;;;;;;;;;;-6.10;91.30;;;;;;5032357;28;19940;-43
2021/12/26 02:28:14;;;;;;;;;;;-6.10;91.70;;;;;;5036839;28;20369;-43
2021/12/26 02:30:41;;;;;;;;;;;-6.10;91.60;;;;;;5031004;28;19933;-42
2021/12/26 02:33:11;;;;;;;;;;;-6.10;91.60;;;;;;5034755;28;19932;-42
2021/12/26 02:35:39;;;;;;;;;;;-6.20;91.20;;;;;;5031872;28;19966;-41
2021/12/26 02:38:06;;;;;;;;;;;-6.20;91.20;;;;;;5032387;28;19925;-42
2021/12/26 02:40:33;;;;;;;;;;;-6.10;91.30;;;;;;5030909;28;20345;-42
2021/12/26 02:43:00;;;;;;;;;;;-6.30;91.50;;;;;;5032324;28;20455;-41
2021/12/26 02:45:26;;;;;;;;;;;-6.20;91.50;;;;;;5032504;28;19935;-42
2021/12/26 02:47:53;;;;;;;;;;;-6.20;91.50;;;;;;5030341;28;19960;-43
2021/12/26 02:50:21;;;;;;;;;;;-6.30;91.70;;;;;;5034831;28;20384;-41
2021/12/26 02:52:49;;;;;;;;;;;-6.30;91.90;;;;;;5032560;28;19933;-42
2021/12/26 02:55:17;;;;;;;;;;;-6.30;92.00;;;;;;5032751;28;19929;-42
2021/12/26 02:57:46;;;;;;;;;;;-6.30;92.10;;;;;;5032369;28;20020;-42
2021/12/26 03:00:13;;;;;;;;;;;-6.40;92.30;;;;;;5031446;28;19975;-42
2021/12/26 03:02:40;;;;;;;;;;;-6.40;92.20;;;;;;5034208;28;19975;-43
2021/12/26 03:05:07;;;;;;;;;;;-6.40;92.20;;;;;;5032447;28;20365;-42
2021/12/26 03:07:34;;;;;;;;;;;-6.40;92.00;;;;;;5032316;28;20010;-43
2021/12/26 03:10:02;;;;;;;;;;;-6.50;92.00;;;;;;5031217;28;19932;-42
2021/12/26 03:12:31;;;;;;;;;;;-6.40;92.10;;;;;;5032433;28;19929;-42
2021/12/26 03:15:01;;;;;;;;;;;-6.50;92.40;;;;;;5030695;28;20028;-44
2021/12/26 03:17:27;;;;;;;;;;;-6.50;92.40;;;;;;5028973;28;19925;-42
2021/12/26 03:19:54;;;;;;;;;;;-6.50;92.20;;;;;;5031777;28;19933;-42
2021/12/26 03:22:24;;;;;;;;;;;-6.50;92.20;;;;;;5031167;28;19955;-44
2021/12/26 03:24:51;;;;;;;;;;;-6.60;92.30;;;;;;5032296;28;20425;-43
2021/12/26 03:27:19;;;;;;;;;;;-6.50;92.40;;;;;;5036215;28;20395;-42
2021/12/26 03:29:46;;;;;;;;;;;-6.60;92.50;;;;;;5035489;28;20381;-43
2021/12/26 03:32:12;;;;;;;;;;;-6.60;92.50;;;;;;5037075;28;19925;-44
2021/12/26 03:34:44;;;;;;;;;;;-6.60;92.80;;;;;;5036084;28;19975;-43
2021/12/26 03:37:11;;;;;;;;;;;-6.50;92.40;;;;;;5038613;28;19929;-42
2021/12/26 03:39:38;;;;;;;;;;;-6.60;92.50;;;;;;5035171;28;19925;-42
2021/12/26 03:42:05;;;;;;;;;;;-6.60;92.40;;;;;;5035985;28;19955;-43
2021/12/26 03:44:33;;;;;;;;;;;-6.60;92.40;;;;;;5035793;28;20441;-43
2021/12/26 03:47:00;;;;;;;;;;;-6.60;92.60;;;;;;5030156;28;20304;-42
2021/12/26 03:49:27;;;;;;;;;;;-6.60;92.50;;;;;;5034686;28;19968;-43
2021/12/26 03:51:54;;;;;;;;;;;-6.60;92.60;;;;;;5034491;28;19932;-43
2021/12/26 03:54:20;;;;;;;;;;;-6.60;92.70;;;;;;5035787;28;20387;-42
2021/12/26 03:56:47;;;;;;;;;;;-6.60;92.50;;;;;;5035644;28;19925;-43
2021/12/26 03:59:14;;;;;;;;;;;-6.60;92.60;;;;;;5035662;28;19925;-42
2021/12/26 04:01:42;;;;;;;;;;;-6.70;92.60;;;;;;5035337;28;20015;-42
2021/12/26 04:04:09;;;;;;;;;;;-6.70;92.70;;;;;;5034350;28;19939;-44
2021/12/26 04:06:36;;;;;;;;;;;-6.70;92.80;;;;;;5037401;28;20377;-43
2021/12/26 04:09:03;;;;;;;;;;;-6.70;92.70;;;;;;5034182;28;19925;-41
2021/12/26 04:11:30;;;;;;;;;;;-6.70;92.70;;;;;;5034543;28;20313;-42
2021/12/26 04:13:57;;;;;;;;;;;-6.70;92.90;;;;;;5034448;28;19925;-42
2021/12/26 04:16:24;;;;;;;;;;;-6.70;92.90;;;;;;5035578;28;20296;-42
2021/12/26 04:18:52;;;;;;;;;;;-6.60;92.90;;;;;;5034340;28;19971;-42
2021/12/26 04:21:18;;;;;;;;;;;-6.70;92.80;;;;;;5034047;28;19979;-42
2021/12/26 04:23:45;;;;;;;;;;;-6.70;92.80;;;;;;5035607;28;20012;-42
2021/12/26 04:26:12;;;;;;;;;;;-6.70;92.70;;;;;;5034340;28;20374;-42
2021/12/26 04:28:39;;;;;;;;;;;-6.60;92.70;;;;;;5034234;28;20429;-42
2021/12/26 04:31:06;;;;;;;;;;;-6.70;92.60;;;;;;5032172;28;19925;-42
2021/12/26 04:33:32;;;;;;;;;;;-6.70;92.80;;;;;;5034188;28;19933;-45
2021/12/26 04:36:00;;;;;;;;;;;-6.70;92.80;;;;;;5035994;28;19980;-45
2021/12/26 04:38:27;;;;;;;;;;;-6.70;92.90;;;;;;5034125;28;19925;-43
2021/12/26 04:40:54;;;;;;;;;;;-6.70;92.80;;;;;;5033785;28;19925;-42
2021/12/26 04:43:22;;;;;;;;;;;-6.70;92.70;;;;;;5041396;28;19933;-41
2021/12/26 04:45:49;;;;;;;;;;;-6.70;92.60;;;;;;5032205;28;19931;-42
2021/12/26 04:48:16;;;;;;;;;;;-6.70;92.60;;;;;;5034350;28;20336;-43
2021/12/26 04:50:43;;;;;;;;;;;-6.70;92.50;;;;;;5033381;28;20282;-42
2021/12/26 04:53:11;;;;;;;;;;;-6.70;92.60;;;;;;5033275;28;19964;-43
2021/12/26 04:55:38;;;;;;;;;;;-6.60;92.50;;;;;;5033526;28;19931;-43
2021/12/26 04:58:05;;;;;;;;;;;-6.60;92.50;;;;;;5034307;28;20381;-42
2021/12/26 05:00:32;;;;;;;;;;;-6.50;92.30;;;;;;5031015;28;19968;-43
2021/12/26 05:02:59;;;;;;;;;;;-6.60;92.20;;;;;;5035205;28;19925;-43
2021/12/26 05:05:27;;;;;;;;;;;-6.70;91.90;;;;;;5034815;28;19925;-42
2021/12/26 05:07:54;;;;;;;;;;;-6.60;92.10;;;;;;5033813;28;20019;-43
2021/12/26 05:10:24;;;;;;;;;;;-6.60;92.00;;;;;;5033141;28;19983;-43
2021/12/26 05:12:51;;;;;;;;;;;-6.60;91.90;;;;;;5033705;28;19929;-41
2021/12/26 05:15:18;;;;;;;;;;;-6.60;91.90;;;;;;5033719;28;19925;-42
2021/12/26 05:17:44;;;;;;;;;;;-6.70;91.90;;;;;;5033427;28;19925;-42
2021/12/26 05:20:11;;;;;;;;;;;-6.60;92.10;;;;;;5034522;28;20020;-43
2021/12/26 05:22:38;;;;;;;;;;;-6.60;91.90;;;;;;5030559;28;19925;-42
2021/12/26 05:25:06;;;;;;;;;;;-6.60;92.10;;;;;;5032882;28;19935;-42
2021/12/26 05:27:34;;;;;;;;;;;-6.60;92.00;;;;;;5033506;28;20015;-42
2021/12/26 05:30:01;;;;;;;;;;;-6.60;92.20;;;;;;5033616;28;20361;-43
2021/12/26 05:32:28;;;;;;;;;;;-6.60;92.10;;;;;;5032894;28;19925;-42
2021/12/26 05:34:55;;;;;;;;;;;-6.60;92.30;;;;;;5034124;28;19972;-42
2021/12/26 05:37:22;;;;;;;;;;;-6.60;92.20;;;;;;5033174;28;20007;-42
2021/12/26 05:39:48;;;;;;;;;;;-6.60;91.90;;;;;;5033990;28;19935;-42
2021/12/26 05:42:16;;;;;;;;;;;-6.70;92.20;;;;;;5035158;28;20421;-42
2021/12/26 05:44:44;;;;;;;;;;;-6.60;92.10;;;;;;5032071;28;19971;-42
2021/12/26 05:47:11;;;;;;;;;;;-6.60;91.90;;;;;;5028026;28;19959;-42
2021/12/26 05:49:38;;;;;;;;;;;-6.60;91.80;;;;;;5030743;28;19925;-43
2021/12/26 05:52:05;;;;;;;;;;;-6.50;91.60;;;;;;5034445;28;20018;-43
2021/12/26 05:54:32;;;;;;;;;;;-6.50;91.80;;;;;;5033291;28;20443;-42
2021/12/26 05:56:59;;;;;;;;;;;-6.50;91.50;;;;;;5032062;28;19975;-44
2021/12/26 05:59:25;;;;;;;;;;;-6.50;91.40;;;;;;5032974;28;19925;-43
2021/12/26 06:01:53;;;;;;;;;;;-6.50;91.30;;;;;;5032912;28;19925;-44
2021/12/26 06:04:20;;;;;;;;;;;-6.50;91.60;;;;;;5039476;28;19931;-44
2021/12/26 06:06:47;;;;;;;;;;;-6.40;91.30;;;;;;5036599;28;20391;-42
2021/12/26 06:09:14;;;;;;;;;;;-6.50;91.50;;;;;;5033149;28;19925;-42
2021/12/26 06:11:41;;;;;;;;;;;-6.50;91.40;;;;;;5032197;28;19929;-43
2021/12/26 06:14:07;;;;;;;;;;;-6.30;91.10;;;;;;5032034;28;19975;-44
2021/12/26 06:16:34;;;;;;;;;;;-6.30;91.20;;;;;;5032095;28;20385;-43
2021/12/26 06:19:02;;;;;;;;;;;-6.40;91.30;;;;;;5032587;28;19973;-43
2021/12/26 06:21:29;;;;;;;;;;;-6.40;91.20;;;;;;5032056;28;19929;-43
2021/12/26 06:23:56;;;;;;;;;;;-6.40;91.30;;;;;;5031371;28;20268;-43
2021/12/26 06:26:23;;;;;;;;;;;-6.40;91.40;;;;;;5032953;28;19932;-42
2021/12/26 06:28:50;;;;;;;;;;;-6.40;91.30;;;;;;5032668;28;19998;-41
2021/12/26 06:31:17;;;;;;;;;;;-6.40;91.00;;;;;;5031290;28;20427;-42
2021/12/26 06:33:43;;;;;;;;;;;-6.40;91.20;;;;;;5048158;28;19979;-42
2021/12/26 06:36:12;;;;;;;;;;;-6.30;91.20;;;;;;5035935;28;19924;-43
2021/12/26 06:38:38;;;;;;;;;;;-6.40;91.30;;;;;;5034098;28;19955;-43
2021/12/26 06:41:05;;;;;;;;;;;-6.30;91.00;;;;;;5031271;28;19925;-42
2021/12/26 06:43:32;;;;;;;;;;;-6.10;91.20;;;;;;5032491;28;19969;-43
2021/12/26 06:45:59;;;;;;;;;;;-6.30;91.10;;;;;;5031635;28;19983;-43
2021/12/26 06:48:25;;;;;;;;;;;-6.30;91.00;;;;;;5033374;28;19956;-42
2021/12/26 06:50:52;;;;;;;;;;;-6.30;91.10;;;;;;5031072;28;19932;-43
2021/12/26 06:53:20;;;;;;;;;;;-6.30;91.20;;;;;;5031575;28;19925;-44
2021/12/26 06:55:47;;;;;;;;;;;-6.30;91.20;;;;;;5031682;28;19925;-41
2021/12/26 06:58:14;;;;;;;;;;;-6.40;91.20;;;;;;5032730;28;20392;-43
2021/12/26 07:00:41;;;;;;;;;;;-6.30;91.20;;;;;;5031425;28;19929;-42
2021/12/26 07:03:08;;;;;;;;;;;-6.30;91.40;;;;;;5031741;28;19925;-43
2021/12/26 07:05:35;;;;;;;;;;;-6.30;91.50;;;;;;5030805;28;19925;-45
2021/12/26 07:08:02;;;;;;;;;;;-6.40;91.70;;;;;;5038853;28;19983;-43
2021/12/26 07:10:30;;;;;;;;;;;-6.40;91.60;;;;;;5031456;28;19987;-41
2021/12/26 07:12:57;;;;;;;;;;;-6.40;91.90;;;;;;5032456;28;19976;-43
2021/12/26 07:15:24;;;;;;;;;;;-6.40;91.90;;;;;;5029245;28;20015;-42
2021/12/26 07:17:50;;;;;;;;;;;-6.40;91.90;;;;;;5031001;28;20448;-44
2021/12/26 07:20:17;;;;;;;;;;;-6.40;91.90;;;;;;5031431;28;20670;-42
2021/12/26 07:22:46;;;;;;;;;;;-6.40;92.10;;;;;;5031709;28;20300;-42
2021/12/26 07:25:12;;;;;;;;;;;-6.30;92.20;;;;;;5031048;28;19925;-43
2021/12/26 07:27:41;;;;;;;;;;;-6.40;92.10;;;;;;5032352;28;19948;-42
2021/12/26 07:30:08;;;;;;;;;;;-6.40;92.30;;;;;;5032954;28;20029;-43
2021/12/26 07:32:35;;;;;;;;;;;-6.40;92.20;;;;;;5031600;28;20387;-43
2021/12/26 07:35:02;;;;;;;;;;;-6.50;92.10;;;;;;5033307;28;19933;-42
2021/12/26 07:37:29;;;;;;;;;;;-6.40;91.90;;;;;;5030424;28;19925;-42
2021/12/26 07:39:56;;;;;;;;;;;-6.30;91.90;;;;;;5030162;28;19979;-44
2021/12/26 07:42:22;;;;;;;;;;;-6.40;91.80;;;;;;5031900;28;20344;-43
2021/12/26 07:44:51;;;;;;;;;;;-6.40;92.00;;;;;;5021854;28;19976;-42
2021/12/26 07:47:17;;;;;;;;;;;-6.40;91.80;;;;;;5027637;28;19935;-44
2021/12/26 07:49:44;;;;;;;;;;;-6.40;91.80;;;;;;5027596;28;19969;-44
2021/12/26 07:52:15;;;;;;;;;;;-6.30;92.00;;;;;;5031186;28;19929;-44
2021/12/26 07:54:42;;;;;;;;;;;-6.30;91.80;;;;;;5029126;28;19995;-43
2021/12/26 07:57:09;;;;;;;;;;;-6.30;91.90;;;;;;5030431;28;19925;-41
2021/12/26 07:59:36;;;;;;;;;;;-6.30;92.20;;;;;;5027657;28;19979;-42
2021/12/26 08:02:04;;;;;;;;;;;-6.20;91.90;;;;;;5029792;28;20440;-43
2021/12/26 08:04:31;;;;;;;;;;;-6.20;91.80;;;;;;5033142;28;19936;-42
2021/12/26 08:06:59;;;;;;;;;;;-6.20;91.70;;;;;;5029867;28;19932;-41
2021/12/26 08:09:26;;;;;;;;;;;-6.20;91.80;;;;;;5030367;28;19929;-41
2021/12/26 08:11:52;;;;;;;;;;;-6.20;91.70;;;;;;5031903;28;20412;-42
2021/12/26 08:14:19;;;;;;;;;;;-6.20;91.80;;;;;;5032175;28;19961;-43
2021/12/26 08:16:46;;;;;;;;;;;-6.10;91.80;;;;;;5034945;28;19972;-41
2021/12/26 08:19:14;;;;;;;;;;;-6.10;91.50;;;;;;5039689;28;20011;-42
2021/12/26 08:21:41;;;;;;;;;;;-6.10;91.60;;;;;;5035003;28;19943;-43
2021/12/26 08:24:08;;;;;;;;;;;-6.10;91.70;;;;;;5033220;28;19929;-43
2021/12/26 08:26:35;;;;;;;;;;;-6.00;91.30;;;;;;5030092;28;19995;-42
2021/12/26 08:29:01;;;;;;;;;;;-5.90;91.30;;;;;;5032454;28;19935;-42
2021/12/26 08:31:29;;;;;;;;;;;-6.00;91.50;;;;;;5032312;28;20345;-43
2021/12/26 08:33:56;;;;;;;;;;;-5.90;91.40;;;;;;5034944;28;19996;-43
2021/12/26 08:36:24;;;;;;;;;;;-5.90;91.20;;;;;;5032619;28;19939;-43
2021/12/26 08:38:51;;;;;;;;;;;-5.90;91.40;;;;;;5034790;28;20391;-42
2021/12/26 08:41:18;;;;;;;;;;;-5.80;91.10;;;;;;5032336;28;19980;-43
2021/12/26 08:43:45;;;;;;;;;;;-5.80;91.20;;;;;;5033488;28;19931;-42
2021/12/26 08:46:12;;;;;;;;;;;-5.70;91.00;;;;;;5030310;28;19940;-41
2021/12/26 08:48:39;;;;;;;;;;;-5.70;91.00;;;;;;5031888;28;20481;-42
2021/12/26 08:51:06;;;;;;;;;;;-5.60;91.10;;;;;;5032547;28;19968;-42
2021/12/26 08:53:34;;;;;;;;;;;-5.70;90.90;;;;;;5031801;28;20389;-43
2021/12/26 08:56:02;;;;;;;;;;;-5.60;90.90;;;;;;5033120;28;20416;-42
2021/12/26 08:58:29;;;;;;;;;;;-5.60;91.00;;;;;;5033348;28;19929;-43
2021/12/26 09:00:56;;;;;;;;;;;-5.50;91.00;;;;;;5028985;28;20393;-42
2021/12/26 09:03:23;;;;;;;;;;;-5.50;90.60;;;;;;5030491;28;19925;-44
2021/12/26 09:05:49;;;;;;;;;;;-5.40;90.20;;;;;;5031909;28;20356;-43
2021/12/26 09:08:16;;;;;;;;;;;-5.30;90.30;;;;;;5030513;28;20019;-43
2021/12/26 09:10:44;;;;;;;;;;;-5.30;89.30;;;;;;5030557;28;20003;-43
2021/12/26 09:13:11;;;;;;;;;;;-5.20;90.10;;;;;;5030166;28;19933;-42
2021/12/26 09:15:38;;;;;;;;;;;-5.20;89.00;;;;;;5033358;28;19929;-43
2021/12/26 09:18:05;;;;;;;;;;;-5.10;89.60;;;;;;5030682;28;20015;-42
2021/12/26 09:20:32;;;;;;;;;;;-5.00;89.20;;;;;;5036004;28;19964;-42
2021/12/26 09:22:59;;;;;;;;;;;-4.90;88.70;;;;;;5029981;28;19983;-44
2021/12/26 09:25:25;;;;;;;;;;;-4.90;89.00;;;;;;5031059;28;20046;-42
2021/12/26 09:27:53;;;;;;;;;;;-4.80;88.60;;;;;;5030742;28;20024;-44
2021/12/26 09:30:20;;;;;;;;;;;-4.80;88.60;;;;;;5025122;28;19931;-42
2021/12/26 09:32:47;;;;;;;;;;;-4.70;87.20;;;;;;5030778;28;20260;-43
2021/12/26 09:35:14;;;;;;;;;;;-4.60;87.60;;;;;;5028171;28;20463;-42
2021/12/26 09:37:41;;;;;;;;;;;-4.50;87.40;;;;;;5026583;28;19976;-43
2021/12/26 09:40:08;;;;;;;;;;;-4.40;86.80;;;;;;5035099;28;19925;-45
2021/12/26 09:42:37;;;;;;;;;;;-4.40;86.50;;;;;;5029215;28;19929;-43
2021/12/26 09:45:06;;;;;;;;;;;-4.30;87.10;;;;;;5030620;28;19933;-42
2021/12/26 09:47:33;;;;;;;;;;;-4.20;85.60;;;;;;5031016;28;19933;-44
2021/12/26 09:50:00;;;;;;;;;;;-4.10;85.10;;;;;;5033954;28;19925;-42
2021/12/26 09:52:27;;;;;;;;;;;-4.00;85.60;;;;;;5030694;28;20032;-43
2021/12/26 09:54:54;;;;;;;;;;;-4.00;84.50;;;;;;5032796;28;19925;-42
2021/12/26 09:57:20;;;;;;;;;;;-3.90;85.10;;;;;;5030393;28;20369;-42
2021/12/26 09:59:48;;;;;;;;;;;-3.80;84.50;;;;;;5032066;28;19925;-42
2021/12/26 10:02:18;;;;;;;;;;;-3.80;85.20;;;;;;5030736;28;20062;-44
2021/12/26 10:04:45;;;;;;;;;;;-3.70;85.60;;;;;;5029507;28;19925;-42
2021/12/26 10:07:13;;;;;;;;;;;-3.60;85.70;;;;;;5029267;28;19926;-43
2021/12/26 10:09:41;;;;;;;;;;;-3.50;84.00;;;;;;5031571;28;20300;-44
2021/12/26 10:12:08;;;;;;;;;;;-3.50;83.90;;;;;;5030779;28;19932;-42
2021/12/26 10:14:37;;;;;;;;;;;-3.40;83.40;;;;;;5031009;28;19937;-42
2021/12/26 10:17:05;;;;;;;;;;;-3.40;84.10;;;;;;5028990;28;19925;-45
2021/12/26 10:19:34;;;;;;;;;;;-3.30;84.70;;;;;;5028890;28;19933;-43
2021/12/26 10:22:01;;;;;;;;;;;-3.20;84.10;;;;;;5029646;28;19931;-43
2021/12/26 10:24:28;;;;;;;;;;;-3.20;83.60;;;;;;5030994;28;20331;-43
2021/12/26 10:26:56;;;;;;;;;;;-3.10;83.70;;;;;;5030626;28;20451;-43
2021/12/26 10:29:23;;;;;;;;;;;-3.00;83.50;;;;;;5048531;28;20011;-44
2021/12/26 10:31:53;;;;;;;;;;;-3.00;83.20;;;;;;5030191;28;20016;-43
2021/12/26 10:34:22;;;;;;;;;;;-2.90;84.30;;;;;;5031124;28;20439;-43
2021/12/26 10:36:50;;;;;;;;;;;-2.80;84.30;;;;;;5032713;28;19968;-43
2021/12/26 10:39:18;;;;;;;;;;;-2.80;84.20;;;;;;5029429;28;20387;-44
2021/12/26 10:41:46;;;;;;;;;;;-2.70;83.40;;;;;;5038659;28;20455;-43
2021/12/26 10:44:22;;;;;;;;;;;-2.70;84.00;;;;;;5039515;28;19971;-43
2021/12/26 10:46:50;;;;;;;;;;;-2.60;83.20;;;;;;5029808;28;19929;-45
2021/12/26 10:49:26;;;;;;;;;;;-2.60;84.60;;;;;;5031041;28;19925;-44
2021/12/26 10:51:55;;;;;;;;;;;-2.50;83.50;;;;;;5029628;28;19929;-43
2021/12/26 10:54:25;;;;;;;;;;;-2.50;84.20;;;;;;5028875;28;21565;-43
2021/12/26 10:57:10;;;;;;;;;;;-2.40;83.90;;;;;;5025461;28;19933;-45
2021/12/26 10:59:38;;;;;;;;;;;-2.40;84.00;;;;;;4957167;28;21418;-43
2021/12/26 11:02:05;;;;;;;;;;;-2.30;84.20;;;;;;4992079;28;20020;-43
2021/12/26 11:04:31;;;;;;;;;;;-2.30;83.00;;;;;;4989425;28;19981;-42
2021/12/26 11:07:03;;;;;;;;;;;-2.30;84.00;;;;;;4991100;28;19932;-44
2021/12/26 11:09:30;;;;;;;;;;;-2.20;84.40;;;;;;4989375;28;19940;-45
2021/12/26 11:11:57;;;;;;;;;;;-2.10;85.70;;;;;;4987037;28;19948;-43
2021/12/26 11:14:25;;;;;;;;;;;-2.00;84.20;;;;;;4991094;28;19993;-43
2021/12/26 11:16:52;;;;;;;;;;;-2.00;84.20;;;;;;4989939;28;20313;-43
2021/12/26 11:19:33;;;;;;;;;;;-2.00;84.10;;;;;;4988147;28;19926;-46
2021/12/26 11:22:00;;;;;;;;;;;-1.90;84.40;;;;;;4987022;28;20333;-44
2021/12/26 11:24:28;;;;;;;;;;;-1.80;84.90;;;;;;4989116;28;19926;-45
2021/12/26 11:26:55;;;;;;;;;;;-1.80;85.10;;;;;;4991381;28;19950;-45
2021/12/26 11:29:22;;;;;;;;;;;-1.70;84.90;;;;;;4988603;28;20021;-45
2021/12/26 11:31:50;;;;;;;;;;;-1.70;84.10;;;;;;4988601;28;19953;-44
2021/12/26 11:34:17;;;;;;;;;;;-1.50;84.30;;;;;;4990021;28;19925;-43
2021/12/26 11:36:44;;;;;;;;;;;-1.60;83.90;;;;;;4989189;28;20043;-44
2021/12/26 11:39:11;;;;;;;;;;;-1.50;84.50;;;;;;4990671;28;20291;-44
2021/12/26 11:41:39;;;;;;;;;;;-1.50;84.80;;;;;;4991166;28;20012;-44
2021/12/26 11:44:11;;;;;;;;;;;-1.40;85.00;;;;;;4986107;28;19988;-42
2021/12/26 11:46:42;;;;;;;;;;;-1.40;84.40;;;;;;4990485;28;19930;-43
2021/12/26 11:49:21;;;;;;;;;;;-1.20;85.20;;;;;;4994590;28;20268;-43
2021/12/26 11:52:00;;;;;;;;;;;-1.10;84.90;;;;;;4991953;28;19934;-45
2021/12/26 11:54:33;;;;;;;;;;;-1.10;85.50;;;;;;4992600;28;19957;-45
2021/12/26 11:57:09;;;;;;;;;;;-1.10;85.00;;;;;;4984098;28;19930;-44
2021/12/26 11:59:40;;;;;;;;;;;-1.00;84.60;;;;;;4990184;28;19972;-43
2021/12/26 12:02:06;;;;;;;;;;;-1.00;84.20;;;;;;4993578;28;19934;-44
2021/12/26 12:04:35;;;;;;;;;;;-0.90;84.30;;;;;;4994346;28;19926;-47
2021/12/26 12:07:03;;;;;;;;;;;-0.90;84.60;;;;;;4992212;28;20744;-45
2021/12/26 12:09:31;;;;;;;;;;;-1.00;85.30;;;;;;4988813;28;20438;-45
2021/12/26 12:12:02;;;;;;;;;;;-0.90;85.10;;;;;;4993940;28;20306;-43
2021/12/26 12:14:43;;;;;;;;;;;-0.80;85.80;;;;;;4994563;28;20354;-44
2021/12/26 12:17:15;;;;;;;;;;;-0.80;84.90;;;;;;4986199;28;19973;-44
2021/12/26 12:19:56;;;;;;;;;;;-0.80;85.50;;;;;;4993664;28;19926;-44
2021/12/26 12:22:23;;;;;;;;;;;-0.70;86.20;;;;;;4994367;28;19933;-45
2021/12/26 12:24:51;;;;;;;;;;;-0.70;85.60;;;;;;4994820;28;20307;-45
2021/12/26 12:27:20;;;;;;;;;;;-0.70;85.60;;;;;;4993667;28;20021;-43
2021/12/26 12:29:48;;;;;;;;;;;-0.60;85.60;;;;;;4993913;28;19926;-42
2021/12/26 12:32:16;;;;;;;;;;;-0.60;86.60;;;;;;4992839;28;19980;-45
2021/12/26 12:34:47;;;;;;;;;;;-0.50;86.60;;;;;;4994120;28;19934;-44
2021/12/26 12:37:26;;;;;;;;;;;-0.50;86.60;;;;;;4992837;28;19930;-44
2021/12/26 12:40:05;;;;;;;;;;;-0.50;86.30;;;;;;4994680;28;19933;-45
2021/12/26 12:42:32;;;;;;;;;;;-0.50;86.20;;;;;;4993503;28;19930;-44
2021/12/26 12:44:59;;;;;;;;;;;-0.50;86.30;;;;;;4993176;28;19980;-43
2021/12/26 12:47:27;;;;;;;;;;;-0.50;87.00;;;;;;4992740;28;20016;-45
2021/12/26 12:49:54;;;;;;;;;;;-0.40;86.60;;;;;;4992447;28;19926;-44
2021/12/26 12:52:37;;;;;;;;;;;-0.50;87.00;;;;;;4993509;28;20390;-45
2021/12/26 12:55:04;;;;;;;;;;;-0.40;87.30;;;;;;4994506;28;20394;-44
2021/12/26 12:57:34;;;;;;;;;;;-0.40;87.30;;;;;;4994331;28;19980;-42
2021/12/26 13:00:01;;;;;;;;;;;-0.30;87.30;;;;;;4995104;28;19925;-42
2021/12/26 13:02:34;;;;;;;;;;;-0.30;87.00;;;;;;4994680;28;19925;-45
2021/12/26 13:05:01;;;;;;;;;;;-0.30;86.80;;;;;;4988276;28;19926;-43
2021/12/26 13:07:29;;;;;;;;;;;-0.30;86.90;;;;;;4994533;28;19926;-43
2021/12/26 13:09:56;;;;;;;;;;;-0.30;87.90;;;;;;4993387;28;20283;-43
2021/12/26 13:12:24;;;;;;;;;;;-0.20;88.20;;;;;;4992750;28;20270;-43
2021/12/26 13:14:51;;;;;;;;;;;-0.30;87.10;;;;;;4993364;28;19925;-45
2021/12/26 13:17:24;;;;;;;;;;;-0.30;87.70;;;;;;4993343;28;20045;-43
2021/12/26 13:19:56;;;;;;;;;;;-0.20;88.10;;;;;;4993929;28;19926;-44
2021/12/26 13:22:23;;;;;;;;;;;-0.20;87.90;;;;;;4991572;28;20045;-43
2021/12/26 13:24:50;;;;;;;;;;;-0.20;88.50;;;;;;4994445;28;20382;-43
2021/12/26 13:27:22;;;;;;;;;;;-0.20;88.60;;;;;;4976397;28;20346;-45
2021/12/26 13:29:52;;;;;;;;;;;-0.20;88.60;;;;;;4991944;28;19973;-43
2021/12/26 13:32:19;;;;;;;;;;;-0.20;88.60;;;;;;4992666;28;20595;-43
2021/12/26 13:34:54;;;;;;;;;;;-0.20;88.70;;;;;;4993273;28;19980;-44
2021/12/26 13:37:21;;;;;;;;;;;-0.20;88.70;;;;;;4994281;28;19941;-45
2021/12/26 13:39:53;;;;;;;;;;;-0.10;89.40;;;;;;4992875;28;19926;-43
2021/12/26 13:42:19;;;;;;;;;;;-0.20;89.40;;;;;;4990894;28;20390;-43
2021/12/26 13:44:46;;;;;;;;;;;-0.20;88.90;;;;;;4991985;28;19969;-44
2021/12/26 13:47:13;;;;;;;;;;;-0.10;88.80;;;;;;4991949;28;19980;-41
2021/12/26 13:49:40;;;;;;;;;;;-0.20;88.50;;;;;;4985798;28;19933;-43
2021/12/26 13:52:08;;;;;;;;;;;-0.20;88.50;;;;;;4994386;28;19926;-43
2021/12/26 13:54:47;;;;;;;;;;;-0.20;89.20;;;;;;4992863;28;19936;-44
2021/12/26 13:57:16;;;;;;;;;;;-0.30;89.70;;;;;;4991953;28;19932;-43
2021/12/26 13:59:43;;;;;;;;;;;-0.20;90.00;;;;;;4990705;28;19929;-43
2021/12/26 14:02:10;;;;;;;;;;;-0.30;90.10;;;;;;4992931;28;19925;-43
2021/12/26 14:04:40;;;;;;;;;;;-0.30;90.10;;;;;;4992566;28;19940;-43
2021/12/26 14:07:09;;;;;;;;;;;-0.40;89.50;;;;;;4989883;28;19926;-43
2021/12/26 14:09:39;;;;;;;;;;;-0.40;89.60;;;;;;4992145;28;19926;-43
2021/12/26 14:12:06;;;;;;;;;;;-0.50;89.90;;;;;;4991355;28;19925;-43
2021/12/26 14:14:37;;;;;;;;;;;-0.50;90.10;;;;;;4991336;28;19926;-43
2021/12/26 14:17:08;;;;;;;;;;;-0.50;90.20;;;;;;4988444;28;19926;-46
2021/12/26 14:19:35;;;;;;;;;;;-0.50;90.30;;;;;;4988046;28;20053;-44
2021/12/26 14:22:01;;;;;;;;;;;-0.60;90.20;;;;;;4988581;28;19926;-43